createdAt,value
2019-05-20T00:00:04.661Z,12.95
2019-05-20T00:00:34.716Z,12.95
2019-05-20T00:01:05.239Z,12.94
2019-05-20T00:01:34.752Z,12.94
2019-05-20T00:02:04.657Z,12.94
2019-05-20T00:02:34.725Z,12.94
2019-05-20T00:03:04.660Z,12.94
2019-05-20T00:03:34.827Z,12.95
2019-05-20T00:04:06.231Z,12.95
2019-05-20T00:04:34.720Z,12.95
2019-05-20T00:05:04.660Z,12.94
2019-05-20T00:05:34.751Z,12.91
2019-05-20T00:06:04.683Z,12.92
2019-05-20T00:06:34.711Z,12.92
2019-05-20T00:07:04.665Z,12.91
2019-05-20T00:07:34.844Z,12.91
2019-05-20T00:08:04.660Z,12.92
2019-05-20T00:08:34.741Z,12.92
2019-05-20T00:09:04.694Z,12.92
2019-05-20T00:09:34.820Z,12.92
2019-05-20T00:10:04.661Z,12.91
2019-05-20T00:10:34.725Z,12.92
2019-05-20T00:11:04.665Z,12.90
2019-05-20T00:11:35.293Z,12.90
2019-05-20T00:12:04.661Z,12.91
2019-05-20T00:12:34.725Z,12.91
2019-05-20T00:13:04.659Z,12.90
2019-05-20T00:13:34.721Z,12.90
2019-05-20T00:14:04.662Z,12.91
2019-05-20T00:14:36.280Z,12.91
2019-05-20T00:15:04.659Z,12.91
2019-05-20T00:15:34.724Z,12.92
2019-05-20T00:16:04.672Z,12.92
2019-05-20T00:16:34.738Z,12.92
2019-05-20T00:17:04.669Z,12.92
2019-05-20T00:17:34.734Z,12.92
2019-05-20T00:18:04.747Z,12.92
2019-05-20T00:18:34.723Z,12.92
2019-05-20T00:19:04.661Z,12.91
2019-05-20T00:19:34.736Z,12.90
2019-05-20T00:20:04.825Z,12.91
2019-05-20T00:20:34.727Z,12.90
2019-05-20T00:21:04.659Z,12.90
2019-05-20T00:21:34.721Z,12.90
2019-05-20T00:22:05.129Z,12.87
2019-05-20T00:22:34.722Z,12.88
2019-05-20T00:23:04.665Z,12.88
2019-05-20T00:23:34.727Z,12.88
2019-05-20T00:24:04.669Z,12.88
2019-05-20T00:24:34.725Z,12.87
2019-05-20T00:25:06.267Z,12.88
2019-05-20T00:25:34.720Z,12.87
2019-05-20T00:26:04.683Z,12.86
2019-05-20T00:26:34.725Z,12.84
2019-05-20T00:27:04.669Z,12.84
2019-05-20T00:27:34.726Z,12.83
2019-05-20T00:28:04.671Z,12.83
2019-05-20T00:28:34.732Z,12.81
2019-05-20T00:29:04.670Z,12.80
2019-05-20T00:29:34.725Z,12.81
2019-05-20T00:30:04.665Z,12.80
2019-05-20T00:30:34.859Z,12.79
2019-05-20T00:31:04.667Z,12.80
2019-05-20T00:31:34.732Z,12.80
2019-05-20T00:32:04.674Z,12.80
2019-05-20T00:32:40.925Z,12.80
2019-05-20T00:33:04.666Z,12.81
2019-05-20T00:33:34.738Z,12.80
2019-05-20T00:34:04.661Z,12.81
2019-05-20T00:34:35.713Z,12.81
2019-05-20T00:35:04.662Z,12.80
2019-05-20T00:35:36.291Z,12.80
2019-05-20T00:36:04.675Z,12.83
2019-05-20T00:36:35.384Z,12.77
2019-05-20T00:37:04.665Z,12.80
2019-05-20T00:37:34.724Z,12.80
2019-05-20T00:38:04.666Z,12.79
2019-05-20T00:38:34.729Z,12.80
2019-05-20T00:39:04.683Z,12.83
2019-05-20T00:39:34.727Z,12.80
2019-05-20T00:40:04.672Z,12.80
2019-05-20T00:40:34.726Z,12.83
2019-05-20T00:41:04.709Z,12.81
2019-05-20T00:41:34.734Z,12.80
2019-05-20T00:42:04.687Z,12.81
2019-05-20T00:42:34.861Z,12.81
2019-05-20T00:43:05.197Z,12.80
2019-05-20T00:43:34.733Z,12.81
2019-05-20T00:44:04.676Z,12.81
2019-05-20T00:44:34.724Z,12.80
2019-05-20T00:45:04.671Z,12.79
2019-05-20T00:45:34.727Z,12.80
2019-05-20T00:46:06.410Z,12.79
2019-05-20T00:46:34.736Z,12.80
2019-05-20T00:47:04.779Z,12.77
2019-05-20T00:47:34.731Z,12.79
2019-05-20T00:48:04.669Z,12.77
2019-05-20T00:48:34.742Z,12.79
2019-05-20T00:49:04.716Z,12.77
2019-05-20T00:49:34.751Z,12.77
2019-05-20T00:50:04.665Z,12.79
2019-05-20T00:50:34.730Z,12.81
2019-05-20T00:51:04.760Z,12.80
2019-05-20T00:51:34.745Z,12.79
2019-05-20T00:52:04.675Z,12.77
2019-05-20T00:52:34.733Z,12.77
2019-05-20T00:53:04.668Z,12.79
2019-05-20T00:53:35.264Z,12.79
2019-05-20T00:54:04.668Z,12.79
2019-05-20T00:54:34.734Z,12.81
2019-05-20T00:55:04.678Z,12.80
2019-05-20T00:55:34.820Z,12.77
2019-05-20T00:56:04.679Z,12.80
2019-05-20T00:56:36.328Z,12.80
2019-05-20T00:57:04.678Z,12.80
2019-05-20T00:57:34.834Z,12.80
2019-05-20T00:58:04.679Z,12.79
2019-05-20T00:58:34.737Z,12.79
2019-05-20T00:59:04.671Z,12.79
2019-05-20T00:59:34.745Z,12.79
2019-05-20T01:00:04.686Z,12.79
2019-05-20T01:00:34.725Z,12.77
2019-05-20T01:01:04.674Z,12.77
2019-05-20T01:01:34.743Z,12.73
2019-05-20T01:02:04.768Z,12.80
2019-05-20T01:02:34.739Z,12.76
2019-05-20T01:03:04.680Z,12.74
2019-05-20T01:03:34.740Z,12.74
2019-05-20T01:04:05.203Z,12.77
2019-05-20T01:04:34.741Z,12.77
2019-05-20T01:05:04.670Z,12.77
2019-05-20T01:05:34.743Z,12.76
2019-05-20T01:06:04.674Z,12.74
2019-05-20T01:06:34.744Z,12.74
2019-05-20T01:07:06.337Z,12.74
2019-05-20T01:07:34.731Z,12.73
2019-05-20T01:08:04.666Z,12.76
2019-05-20T01:08:34.739Z,12.79
2019-05-20T01:09:04.675Z,12.76
2019-05-20T01:09:34.736Z,12.77
2019-05-20T01:10:04.678Z,12.76
2019-05-20T01:10:34.733Z,12.74
2019-05-20T01:11:04.676Z,12.74
2019-05-20T01:11:34.728Z,12.76
2019-05-20T01:12:04.690Z,12.76
2019-05-20T01:12:34.776Z,12.76
2019-05-20T01:13:04.693Z,12.74
2019-05-20T01:13:34.737Z,12.73
2019-05-20T01:14:04.684Z,12.74
2019-05-20T01:14:35.256Z,12.74
2019-05-20T01:15:04.679Z,12.71
2019-05-20T01:15:34.736Z,12.74
2019-05-20T01:16:04.706Z,12.74
2019-05-20T01:16:34.745Z,12.74
2019-05-20T01:17:04.689Z,12.74
2019-05-20T01:17:36.263Z,12.71
2019-05-20T01:18:04.677Z,12.71
2019-05-20T01:18:34.747Z,12.73
2019-05-20T01:19:04.672Z,12.71
2019-05-20T01:19:34.737Z,12.74
2019-05-20T01:20:04.681Z,12.71
2019-05-20T01:20:34.739Z,12.70
2019-05-20T01:21:04.674Z,12.69
2019-05-20T01:21:34.741Z,12.71
2019-05-20T01:22:04.706Z,12.71
2019-05-20T01:22:34.855Z,12.73
2019-05-20T01:23:04.732Z,12.71
2019-05-20T01:23:34.735Z,12.76
2019-05-20T01:24:04.683Z,12.71
2019-05-20T01:24:34.833Z,12.73
2019-05-20T01:25:05.168Z,12.73
2019-05-20T01:25:34.738Z,12.73
2019-05-20T01:26:04.690Z,12.76
2019-05-20T01:26:34.814Z,12.76
2019-05-20T01:27:04.690Z,12.77
2019-05-20T01:27:34.748Z,12.76
2019-05-20T01:28:06.278Z,12.74
2019-05-20T01:28:34.755Z,12.80
2019-05-20T01:29:04.683Z,12.79
2019-05-20T01:29:34.741Z,12.76
2019-05-20T01:30:04.685Z,12.77
2019-05-20T01:30:34.746Z,12.76
2019-05-20T01:31:04.681Z,12.77
2019-05-20T01:31:34.738Z,12.79
2019-05-20T01:32:04.689Z,12.79
2019-05-20T01:32:34.745Z,12.77
2019-05-20T01:33:13.104Z,12.79
2019-05-20T01:33:34.741Z,12.81
2019-05-20T01:34:04.693Z,12.80
2019-05-20T01:34:34.749Z,12.77
2019-05-20T01:35:04.686Z,12.77
2019-05-20T01:35:35.218Z,12.79
2019-05-20T01:36:04.679Z,12.77
2019-05-20T01:36:34.736Z,12.77
2019-05-20T01:37:04.687Z,12.76
2019-05-20T01:37:34.751Z,12.76
2019-05-20T01:38:04.695Z,12.74
2019-05-20T01:38:36.255Z,12.77
2019-05-20T01:39:04.689Z,12.77
2019-05-20T01:39:34.754Z,12.76
2019-05-20T01:40:04.687Z,12.79
2019-05-20T01:40:34.748Z,12.80
2019-05-20T01:41:04.775Z,12.79
2019-05-20T01:41:34.755Z,12.77
2019-05-20T01:42:04.691Z,12.77
2019-05-20T01:42:34.749Z,12.77
2019-05-20T01:43:04.703Z,12.74
2019-05-20T01:43:34.751Z,12.77
2019-05-20T01:44:04.740Z,12.76
2019-05-20T01:44:34.740Z,12.77
2019-05-20T01:45:04.707Z,12.80
2019-05-20T01:45:34.877Z,12.79
2019-05-20T01:46:05.279Z,12.79
2019-05-20T01:46:34.767Z,12.80
2019-05-20T01:47:04.687Z,12.77
2019-05-20T01:47:34.753Z,12.77
2019-05-20T01:48:04.685Z,12.80
2019-05-20T01:48:34.753Z,12.77
2019-05-20T01:49:06.257Z,12.77
2019-05-20T01:49:34.752Z,12.77
2019-05-20T01:50:04.688Z,12.79
2019-05-20T01:50:34.741Z,12.79
2019-05-20T01:51:04.687Z,12.79
2019-05-20T01:51:35.012Z,12.77
2019-05-20T01:52:04.679Z,12.76
2019-05-20T01:52:34.756Z,12.74
2019-05-20T01:53:04.686Z,12.77
2019-05-20T01:53:34.761Z,12.79
2019-05-20T01:54:04.686Z,12.76
2019-05-20T01:54:34.771Z,12.79
2019-05-20T01:55:04.742Z,12.81
2019-05-20T01:55:34.774Z,12.77
2019-05-20T01:56:04.698Z,12.77
2019-05-20T01:56:35.141Z,12.77
2019-05-20T01:57:04.713Z,12.77
2019-05-20T01:57:34.748Z,12.77
2019-05-20T01:58:04.694Z,12.76
2019-05-20T01:58:34.745Z,12.77
2019-05-20T01:59:04.699Z,12.77
2019-05-20T01:59:36.272Z,12.79
2019-05-20T02:00:04.694Z,12.79
2019-05-20T02:00:34.754Z,12.79
2019-05-20T02:01:04.695Z,12.79
2019-05-20T02:01:34.750Z,12.79
2019-05-20T02:02:04.689Z,12.80
2019-05-20T02:02:34.745Z,12.80
2019-05-20T02:03:04.695Z,12.80
2019-05-20T02:03:34.752Z,12.79
2019-05-20T02:04:04.691Z,12.79
2019-05-20T02:04:34.752Z,12.77
2019-05-20T02:05:04.741Z,12.80
2019-05-20T02:05:34.760Z,12.79
2019-05-20T02:06:04.747Z,12.77
2019-05-20T02:06:34.758Z,12.77
2019-05-20T02:07:05.140Z,12.77
2019-05-20T02:07:34.746Z,12.80
2019-05-20T02:08:04.726Z,12.77
2019-05-20T02:08:34.753Z,12.76
2019-05-20T02:09:04.687Z,12.74
2019-05-20T02:09:34.757Z,12.77
2019-05-20T02:10:06.245Z,12.74
2019-05-20T02:10:35.386Z,12.71
2019-05-20T02:11:04.816Z,12.73
2019-05-20T02:11:34.976Z,12.73
2019-05-20T02:12:04.689Z,12.74
2019-05-20T02:12:34.872Z,12.76
2019-05-20T02:13:04.701Z,12.74
2019-05-20T02:13:34.753Z,12.76
2019-05-20T02:14:04.698Z,12.74
2019-05-20T02:14:34.845Z,12.73
2019-05-20T02:15:04.692Z,12.73
2019-05-20T02:15:34.770Z,12.76
2019-05-20T02:16:04.693Z,12.76
2019-05-20T02:16:34.758Z,12.74
2019-05-20T02:17:04.698Z,12.76
2019-05-20T02:17:35.136Z,12.76
2019-05-20T02:18:04.698Z,12.77
2019-05-20T02:18:34.793Z,12.76
2019-05-20T02:19:04.693Z,12.77
2019-05-20T02:19:34.750Z,12.77
2019-05-20T02:20:04.710Z,12.77
2019-05-20T02:20:36.241Z,12.76
2019-05-20T02:21:04.698Z,12.76
2019-05-20T02:21:34.760Z,12.76
2019-05-20T02:22:04.692Z,12.76
2019-05-20T02:22:34.871Z,12.76
2019-05-20T02:23:04.698Z,12.76
2019-05-20T02:23:34.755Z,12.76
2019-05-20T02:24:04.704Z,12.76
2019-05-20T02:24:34.751Z,12.74
2019-05-20T02:25:04.692Z,12.76
2019-05-20T02:25:34.761Z,12.76
2019-05-20T02:26:04.770Z,12.74
2019-05-20T02:26:34.760Z,12.74
2019-05-20T02:27:04.771Z,12.73
2019-05-20T02:27:34.756Z,12.71
2019-05-20T02:28:05.155Z,12.76
2019-05-20T02:28:34.749Z,12.73
2019-05-20T02:29:04.811Z,12.71
2019-05-20T02:29:34.755Z,12.69
2019-05-20T02:30:04.713Z,12.70
2019-05-20T02:30:34.759Z,12.70
2019-05-20T02:31:06.256Z,12.71
2019-05-20T02:31:34.759Z,12.71
2019-05-20T02:32:04.695Z,12.71
2019-05-20T02:32:34.758Z,12.70
2019-05-20T02:33:04.705Z,12.73
2019-05-20T02:33:49.676Z,12.73
2019-05-20T02:34:04.696Z,12.71
2019-05-20T02:34:34.802Z,12.71
2019-05-20T02:35:04.737Z,12.70
2019-05-20T02:35:34.758Z,12.69
2019-05-20T02:36:04.717Z,12.70
2019-05-20T02:36:34.800Z,12.70
2019-05-20T02:37:04.689Z,12.67
2019-05-20T02:37:34.765Z,12.67
2019-05-20T02:38:04.694Z,12.69
2019-05-20T02:38:35.166Z,12.67
2019-05-20T02:39:04.690Z,12.67
2019-05-20T02:39:34.752Z,12.67
2019-05-20T02:40:04.687Z,12.64
2019-05-20T02:40:34.770Z,12.66
2019-05-20T02:41:04.700Z,12.63
2019-05-20T02:41:36.268Z,12.64
2019-05-20T02:42:04.710Z,12.63
2019-05-20T02:42:34.755Z,12.62
2019-05-20T02:43:04.709Z,12.63
2019-05-20T02:43:34.851Z,12.63
2019-05-20T02:44:04.712Z,12.62
2019-05-20T02:44:34.755Z,12.60
2019-05-20T02:45:04.712Z,12.62
2019-05-20T02:45:34.777Z,12.60
2019-05-20T02:46:04.700Z,12.57
2019-05-20T02:46:34.765Z,12.57
2019-05-20T02:47:04.815Z,12.56
2019-05-20T02:47:34.764Z,12.55
2019-05-20T02:48:04.695Z,12.55
2019-05-20T02:48:34.752Z,12.55
2019-05-20T02:49:05.162Z,12.53
2019-05-20T02:49:34.763Z,12.52
2019-05-20T02:50:04.708Z,12.53
2019-05-20T02:50:34.782Z,12.50
2019-05-20T02:51:04.703Z,12.50
2019-05-20T02:51:34.770Z,12.49
2019-05-20T02:52:06.245Z,12.48
2019-05-20T02:52:34.757Z,12.50
2019-05-20T02:53:04.702Z,12.48
2019-05-20T02:53:34.753Z,12.49
2019-05-20T02:54:04.733Z,12.48
2019-05-20T02:54:34.773Z,12.48
2019-05-20T02:55:04.696Z,12.48
2019-05-20T02:55:34.761Z,12.48
2019-05-20T02:56:04.876Z,12.49
2019-05-20T02:56:34.769Z,12.46
2019-05-20T02:57:04.709Z,12.45
2019-05-20T02:57:34.802Z,12.45
2019-05-20T02:58:04.718Z,12.45
2019-05-20T02:58:34.761Z,12.48
2019-05-20T02:59:04.702Z,12.48
2019-05-20T02:59:35.258Z,12.45
2019-05-20T03:00:04.742Z,12.46
2019-05-20T03:00:34.776Z,12.46
2019-05-20T03:01:04.710Z,12.45
2019-05-20T03:01:34.764Z,12.43
2019-05-20T03:02:04.723Z,12.43
2019-05-20T03:02:36.279Z,12.43
2019-05-20T03:03:04.710Z,12.43
2019-05-20T03:03:34.762Z,12.45
2019-05-20T03:04:12.941Z,12.42
2019-05-20T03:04:34.774Z,12.40
2019-05-20T03:05:04.708Z,12.40
2019-05-20T03:05:34.765Z,12.42
2019-05-20T03:06:04.712Z,12.39
2019-05-20T03:06:34.788Z,12.39
2019-05-20T03:07:04.708Z,12.36
2019-05-20T03:07:34.772Z,12.37
2019-05-20T03:08:04.730Z,12.37
2019-05-20T03:08:34.829Z,12.36
2019-05-20T03:09:04.714Z,12.36
2019-05-20T03:09:34.768Z,12.35
2019-05-20T03:10:05.245Z,12.36
2019-05-20T03:10:34.849Z,12.33
2019-05-20T03:11:04.707Z,12.35
2019-05-20T03:11:34.772Z,12.35
2019-05-20T03:12:04.715Z,12.33
2019-05-20T03:12:34.806Z,12.33
2019-05-20T03:13:06.199Z,12.35
2019-05-20T03:13:34.765Z,12.33
2019-05-20T03:14:04.715Z,12.33
2019-05-20T03:14:34.782Z,12.29
2019-05-20T03:15:04.717Z,12.31
2019-05-20T03:15:34.765Z,12.31
2019-05-20T03:16:04.717Z,12.31
2019-05-20T03:16:34.773Z,12.31
2019-05-20T03:17:04.713Z,12.29
2019-05-20T03:17:34.772Z,12.29
2019-05-20T03:18:04.718Z,12.28
2019-05-20T03:18:34.829Z,12.25
2019-05-20T03:19:04.717Z,12.28
2019-05-20T03:19:34.766Z,12.26
2019-05-20T03:20:04.717Z,12.23
2019-05-20T03:20:35.172Z,12.26
2019-05-20T03:21:04.800Z,12.23
2019-05-20T03:21:34.772Z,12.25
2019-05-20T03:22:04.716Z,12.25
2019-05-20T03:22:34.792Z,12.23
2019-05-20T03:23:04.722Z,12.25
2019-05-20T03:23:36.301Z,12.23
2019-05-20T03:24:04.704Z,12.22
2019-05-20T03:24:34.763Z,12.22
2019-05-20T03:25:04.713Z,12.22
2019-05-20T03:25:34.769Z,12.21
2019-05-20T03:26:04.732Z,12.22
2019-05-20T03:26:34.766Z,12.21
2019-05-20T03:27:04.805Z,12.22
2019-05-20T03:27:34.776Z,12.22
2019-05-20T03:28:04.710Z,12.18
2019-05-20T03:28:34.768Z,12.19
2019-05-20T03:29:04.732Z,12.19
2019-05-20T03:29:34.905Z,12.21
2019-05-20T03:30:04.749Z,12.16
2019-05-20T03:30:34.777Z,12.19
2019-05-20T03:31:05.277Z,12.16
2019-05-20T03:31:34.857Z,12.18
2019-05-20T03:32:04.728Z,12.16
2019-05-20T03:32:34.800Z,12.19
2019-05-20T03:33:04.723Z,12.18
2019-05-20T03:33:34.878Z,12.16
2019-05-20T03:34:06.229Z,12.15
2019-05-20T03:34:48.222Z,12.16
2019-05-20T03:35:04.725Z,12.14
2019-05-20T03:35:35.027Z,12.12
2019-05-20T03:36:04.726Z,12.14
2019-05-20T03:36:34.776Z,12.14
2019-05-20T03:37:04.716Z,12.11
2019-05-20T03:37:34.909Z,12.14
2019-05-20T03:38:04.720Z,12.12
2019-05-20T03:38:34.778Z,12.14
2019-05-20T03:39:04.720Z,12.11
2019-05-20T03:39:34.857Z,12.11
2019-05-20T03:40:04.714Z,12.11
2019-05-20T03:40:34.775Z,12.09
2019-05-20T03:41:04.718Z,12.11
2019-05-20T03:41:35.196Z,12.09
2019-05-20T03:42:04.714Z,12.09
2019-05-20T03:42:34.771Z,12.09
2019-05-20T03:43:04.718Z,12.09
2019-05-20T03:43:34.783Z,12.08
2019-05-20T03:44:04.717Z,12.06
2019-05-20T03:44:36.278Z,12.05
2019-05-20T03:45:04.725Z,12.06
2019-05-20T03:45:34.772Z,12.06
2019-05-20T03:46:04.736Z,12.04
2019-05-20T03:46:34.780Z,12.06
2019-05-20T03:47:04.722Z,12.05
2019-05-20T03:47:34.787Z,12.02
2019-05-20T03:48:04.818Z,12.05
2019-05-20T03:48:34.780Z,12.05
2019-05-20T03:49:04.718Z,12.04
2019-05-20T03:49:34.777Z,12.02
2019-05-20T03:50:04.849Z,12.02
2019-05-20T03:50:34.779Z,12.04
2019-05-20T03:51:04.717Z,12.02
2019-05-20T03:51:34.773Z,12.04
2019-05-20T03:52:05.377Z,12.02
2019-05-20T03:52:34.798Z,12.02
2019-05-20T03:53:04.730Z,12.05
2019-05-20T03:53:34.789Z,12.04
2019-05-20T03:54:04.811Z,12.02
2019-05-20T03:54:34.777Z,12.00
2019-05-20T03:55:06.268Z,11.97
2019-05-20T03:55:34.784Z,11.98
2019-05-20T03:56:04.719Z,11.98
2019-05-20T03:56:34.781Z,11.95
2019-05-20T03:57:04.718Z,11.94
2019-05-20T03:57:34.779Z,11.91
2019-05-20T03:58:04.726Z,11.91
2019-05-20T03:58:34.782Z,11.88
2019-05-20T03:59:04.741Z,11.88
2019-05-20T03:59:34.786Z,11.88
2019-05-20T04:00:04.741Z,11.88
2019-05-20T04:00:34.917Z,11.90
2019-05-20T04:01:04.729Z,11.91
2019-05-20T04:01:34.784Z,11.88
2019-05-20T04:02:04.730Z,11.90
2019-05-20T04:02:35.351Z,11.93
2019-05-20T04:03:04.726Z,11.93
2019-05-20T04:03:34.794Z,11.91
2019-05-20T04:04:04.726Z,11.93
2019-05-20T04:04:34.784Z,11.91
2019-05-20T04:05:04.731Z,11.93
2019-05-20T04:05:36.299Z,11.91
2019-05-20T04:06:04.724Z,11.94
2019-05-20T04:06:34.782Z,11.95
2019-05-20T04:07:04.727Z,11.93
2019-05-20T04:07:34.791Z,11.93
2019-05-20T04:08:04.726Z,11.95
2019-05-20T04:08:34.787Z,11.93
2019-05-20T04:09:04.724Z,11.93
2019-05-20T04:09:34.780Z,11.91
2019-05-20T04:10:04.764Z,11.91
2019-05-20T04:10:34.825Z,11.90
2019-05-20T04:11:04.827Z,11.93
2019-05-20T04:11:34.786Z,11.91
2019-05-20T04:12:04.723Z,11.94
2019-05-20T04:12:34.782Z,11.94
2019-05-20T04:13:05.160Z,11.97
2019-05-20T04:13:35.142Z,11.94
2019-05-20T04:14:04.723Z,11.94
2019-05-20T04:14:34.800Z,11.94
2019-05-20T04:15:04.735Z,11.94
2019-05-20T04:15:34.800Z,11.94
2019-05-20T04:16:06.370Z,11.94
2019-05-20T04:16:34.787Z,11.93
2019-05-20T04:17:04.809Z,11.95
2019-05-20T04:17:34.792Z,11.97
2019-05-20T04:18:04.761Z,11.94
2019-05-20T04:18:34.790Z,11.94
2019-05-20T04:19:04.825Z,11.95
2019-05-20T04:19:34.788Z,11.95
2019-05-20T04:20:04.734Z,11.94
2019-05-20T04:20:34.784Z,11.93
2019-05-20T04:21:04.739Z,11.95
2019-05-20T04:21:34.847Z,11.94
2019-05-20T04:22:04.969Z,11.93
2019-05-20T04:22:34.824Z,11.90
2019-05-20T04:23:04.722Z,11.91
2019-05-20T04:23:35.594Z,11.90
2019-05-20T04:24:04.857Z,11.91
2019-05-20T04:24:34.826Z,11.93
2019-05-20T04:25:04.768Z,11.91
2019-05-20T04:25:34.799Z,11.94
2019-05-20T04:26:04.713Z,11.93
2019-05-20T04:26:36.379Z,11.95
2019-05-20T04:27:04.724Z,11.97
2019-05-20T04:27:34.876Z,11.95
2019-05-20T04:28:04.727Z,11.98
2019-05-20T04:28:34.793Z,12.01
2019-05-20T04:29:04.731Z,12.01
2019-05-20T04:29:34.800Z,12.02
2019-05-20T04:30:04.736Z,12.02
2019-05-20T04:30:34.782Z,12.05
2019-05-20T04:31:04.725Z,12.04
2019-05-20T04:31:34.793Z,12.01
2019-05-20T04:32:04.762Z,12.05
2019-05-20T04:32:34.793Z,12.06
2019-05-20T04:33:04.730Z,12.06
2019-05-20T04:33:34.788Z,12.06
2019-05-20T04:34:05.181Z,12.04
2019-05-20T04:34:34.795Z,12.08
2019-05-20T04:35:20.364Z,12.06
2019-05-20T04:35:34.789Z,12.09
2019-05-20T04:36:04.743Z,12.09
2019-05-20T04:36:34.790Z,12.09
2019-05-20T04:37:06.394Z,12.08
2019-05-20T04:37:34.794Z,12.12
2019-05-20T04:38:04.727Z,12.12
2019-05-20T04:38:34.796Z,12.11
2019-05-20T04:39:04.746Z,12.12
2019-05-20T04:39:34.794Z,12.12
2019-05-20T04:40:04.821Z,12.12
2019-05-20T04:40:34.798Z,12.14
2019-05-20T04:41:04.722Z,12.12
2019-05-20T04:41:35.839Z,12.14
2019-05-20T04:42:06.607Z,12.12
2019-05-20T04:42:34.803Z,12.12
2019-05-20T04:43:04.726Z,12.14
2019-05-20T04:43:34.788Z,12.15
2019-05-20T04:44:04.792Z,12.16
2019-05-20T04:44:35.235Z,12.12
2019-05-20T04:45:04.722Z,12.14
2019-05-20T04:45:34.794Z,12.14
2019-05-20T04:46:04.766Z,12.16
2019-05-20T04:46:34.869Z,12.12
2019-05-20T04:47:04.731Z,12.16
2019-05-20T04:47:36.241Z,12.15
2019-05-20T04:48:04.739Z,12.15
2019-05-20T04:48:34.896Z,12.16
2019-05-20T04:49:04.734Z,12.18
2019-05-20T04:49:34.795Z,12.19
2019-05-20T04:50:04.742Z,12.19
2019-05-20T04:50:34.823Z,12.18
2019-05-20T04:51:04.734Z,12.18
2019-05-20T04:51:34.798Z,12.18
2019-05-20T04:52:04.744Z,12.21
2019-05-20T04:52:34.801Z,12.19
2019-05-20T04:53:04.770Z,12.18
2019-05-20T04:53:34.803Z,12.18
2019-05-20T04:54:04.731Z,12.16
2019-05-20T04:54:34.850Z,12.15
2019-05-20T04:55:05.208Z,12.16
2019-05-20T04:55:34.792Z,12.21
2019-05-20T04:56:04.734Z,12.18
2019-05-20T04:56:34.818Z,12.18
2019-05-20T04:57:04.735Z,12.19
2019-05-20T04:57:34.802Z,12.19
2019-05-20T04:58:06.291Z,12.22
2019-05-20T04:58:34.796Z,12.19
2019-05-20T04:59:04.732Z,12.21
2019-05-20T04:59:34.798Z,12.19
2019-05-20T05:00:04.741Z,12.21
2019-05-20T05:00:34.795Z,12.21
2019-05-20T05:01:04.745Z,12.22
2019-05-20T05:01:34.791Z,12.21
2019-05-20T05:02:04.748Z,12.21
2019-05-20T05:02:34.801Z,12.21
2019-05-20T05:03:04.814Z,12.19
2019-05-20T05:03:34.864Z,12.22
2019-05-20T05:04:04.783Z,12.18
2019-05-20T05:04:34.794Z,12.19
2019-05-20T05:05:04.739Z,12.19
2019-05-20T05:05:37.371Z,12.21
2019-05-20T05:06:04.742Z,12.19
2019-05-20T05:06:34.800Z,12.18
2019-05-20T05:07:04.827Z,12.19
2019-05-20T05:07:34.795Z,12.18
2019-05-20T05:08:04.737Z,12.18
2019-05-20T05:08:36.353Z,12.18
2019-05-20T05:09:04.805Z,12.18
2019-05-20T05:09:34.793Z,12.19
2019-05-20T05:10:04.736Z,12.19
2019-05-20T05:10:34.803Z,12.18
2019-05-20T05:11:04.739Z,12.19
2019-05-20T05:11:34.802Z,12.16
2019-05-20T05:12:04.732Z,12.16
2019-05-20T05:12:34.792Z,12.18
2019-05-20T05:13:04.734Z,12.16
2019-05-20T05:13:34.792Z,12.15
2019-05-20T05:14:04.765Z,12.16
2019-05-20T05:14:34.810Z,12.14
2019-05-20T05:15:07.635Z,12.12
2019-05-20T05:15:34.936Z,12.14
2019-05-20T05:16:05.355Z,12.11
2019-05-20T05:16:34.796Z,12.11
2019-05-20T05:17:04.742Z,12.11
2019-05-20T05:17:34.800Z,12.12
2019-05-20T05:18:04.738Z,12.09
2019-05-20T05:18:34.801Z,12.12
2019-05-20T05:19:06.316Z,12.12
2019-05-20T05:19:34.897Z,12.11
2019-05-20T05:20:04.759Z,12.15
2019-05-20T05:20:34.804Z,12.12
2019-05-20T05:21:04.745Z,12.12
2019-05-20T05:21:34.805Z,12.12
2019-05-20T05:22:04.745Z,12.14
2019-05-20T05:22:34.798Z,12.12
2019-05-20T05:23:04.769Z,12.12
2019-05-20T05:23:34.800Z,12.12
2019-05-20T05:24:04.746Z,12.12
2019-05-20T05:24:34.873Z,12.12
2019-05-20T05:25:04.734Z,12.09
2019-05-20T05:25:34.804Z,12.12
2019-05-20T05:26:04.750Z,12.11
2019-05-20T05:26:35.341Z,12.11
2019-05-20T05:27:04.734Z,12.09
2019-05-20T05:27:34.796Z,12.09
2019-05-20T05:28:04.755Z,12.11
2019-05-20T05:28:34.804Z,12.11
2019-05-20T05:29:04.738Z,12.11
2019-05-20T05:29:36.312Z,12.11
2019-05-20T05:30:04.778Z,12.11
2019-05-20T05:30:34.804Z,12.11
2019-05-20T05:31:04.743Z,12.11
2019-05-20T05:31:34.804Z,12.09
2019-05-20T05:32:04.749Z,12.12
2019-05-20T05:32:34.799Z,12.09
2019-05-20T05:33:04.747Z,12.09
2019-05-20T05:33:34.804Z,12.09
2019-05-20T05:34:04.838Z,12.11
2019-05-20T05:34:34.810Z,12.12
2019-05-20T05:35:04.789Z,12.09
2019-05-20T05:35:34.805Z,12.11
2019-05-20T05:36:04.764Z,12.11
2019-05-20T05:36:34.808Z,12.12
2019-05-20T05:37:05.359Z,12.14
2019-05-20T05:37:34.803Z,12.11
2019-05-20T05:38:04.885Z,12.11
2019-05-20T05:38:34.814Z,12.12
2019-05-20T05:39:04.761Z,12.08
2019-05-20T05:39:34.805Z,12.12
2019-05-20T05:40:07.976Z,12.09
2019-05-20T05:40:34.947Z,12.11
2019-05-20T05:41:04.779Z,12.11
2019-05-20T05:41:34.810Z,12.11
2019-05-20T05:42:04.758Z,12.11
2019-05-20T05:42:34.959Z,12.11
2019-05-20T05:43:04.755Z,12.11
2019-05-20T05:43:34.810Z,12.09
2019-05-20T05:44:04.746Z,12.11
2019-05-20T05:44:34.811Z,12.11
2019-05-20T05:45:04.799Z,12.09
2019-05-20T05:45:34.833Z,12.11
2019-05-20T05:46:04.749Z,12.11
2019-05-20T05:46:35.082Z,12.09
2019-05-20T05:47:04.750Z,12.09
2019-05-20T05:47:35.282Z,12.06
2019-05-20T05:48:04.751Z,12.09
2019-05-20T05:48:34.805Z,12.08
2019-05-20T05:49:04.759Z,12.08
2019-05-20T05:49:34.811Z,12.08
2019-05-20T05:50:04.770Z,12.09
2019-05-20T05:50:36.305Z,12.08
2019-05-20T05:51:04.758Z,12.06
2019-05-20T05:51:34.802Z,12.08
2019-05-20T05:52:04.772Z,12.06
2019-05-20T05:52:34.805Z,12.06
2019-05-20T05:53:04.748Z,12.08
2019-05-20T05:53:34.810Z,12.05
2019-05-20T05:54:04.746Z,12.02
2019-05-20T05:54:34.822Z,12.05
2019-05-20T05:55:04.875Z,12.04
2019-05-20T05:55:34.821Z,12.02
2019-05-20T05:56:04.782Z,12.02
2019-05-20T05:56:34.815Z,12.02
2019-05-20T05:57:04.760Z,12.01
2019-05-20T05:57:34.809Z,12.02
2019-05-20T05:58:08.268Z,12.01
2019-05-20T05:58:34.814Z,12.04
2019-05-20T05:59:04.840Z,12.02
2019-05-20T05:59:34.815Z,12.00
2019-05-20T06:00:04.745Z,12.01
2019-05-20T06:00:34.807Z,11.98
2019-05-20T06:01:06.404Z,12.00
2019-05-20T06:01:34.810Z,12.01
2019-05-20T06:02:04.754Z,11.98
2019-05-20T06:02:34.814Z,11.95
2019-05-20T06:03:04.842Z,11.94
2019-05-20T06:03:34.809Z,11.95
2019-05-20T06:04:04.754Z,11.93
2019-05-20T06:04:34.810Z,11.94
2019-05-20T06:05:04.757Z,11.93
2019-05-20T06:05:34.906Z,11.91
2019-05-20T06:06:11.898Z,11.91
2019-05-20T06:06:34.808Z,11.91
2019-05-20T06:07:04.755Z,11.90
2019-05-20T06:07:34.823Z,11.91
2019-05-20T06:08:04.748Z,11.91
2019-05-20T06:08:35.191Z,11.93
2019-05-20T06:09:04.755Z,11.88
2019-05-20T06:09:34.818Z,11.88
2019-05-20T06:10:04.758Z,11.90
2019-05-20T06:10:35.807Z,11.91
2019-05-20T06:11:04.757Z,11.90
2019-05-20T06:11:36.295Z,11.88
2019-05-20T06:12:04.762Z,11.87
2019-05-20T06:12:34.816Z,11.88
2019-05-20T06:13:05.015Z,11.85
2019-05-20T06:13:34.835Z,11.87
2019-05-20T06:14:04.749Z,11.88
2019-05-20T06:14:34.814Z,11.87
2019-05-20T06:15:04.755Z,11.90
2019-05-20T06:15:34.814Z,11.88
2019-05-20T06:16:04.755Z,11.85
2019-05-20T06:16:36.729Z,11.90
2019-05-20T06:17:04.761Z,11.91
2019-05-20T06:17:34.833Z,11.91
2019-05-20T06:18:04.755Z,11.91
2019-05-20T06:18:34.831Z,11.91
2019-05-20T06:19:04.759Z,11.91
2019-05-20T06:19:34.819Z,11.94
2019-05-20T06:20:07.262Z,11.94
2019-05-20T06:20:34.818Z,11.95
2019-05-20T06:21:04.769Z,11.95
2019-05-20T06:21:34.816Z,11.93
2019-05-20T06:22:06.358Z,11.95
2019-05-20T06:22:34.817Z,11.98
2019-05-20T06:23:04.762Z,11.95
2019-05-20T06:23:34.813Z,11.95
2019-05-20T06:24:04.844Z,11.97
2019-05-20T06:24:34.827Z,11.98
2019-05-20T06:25:04.763Z,11.98
2019-05-20T06:25:34.831Z,11.98
2019-05-20T06:26:04.867Z,12.00